createdAt,value
2017-09-24T00:02:02.185Z,12.70
2017-09-24T00:04:31.047Z,12.70
2017-09-24T00:06:59.156Z,12.70
2017-09-24T00:09:28.008Z,12.70
2017-09-24T00:11:56.099Z,12.70
2017-09-24T00:14:24.178Z,12.80
2017-09-24T00:16:52.266Z,12.90
2017-09-24T00:19:20.367Z,12.90
2017-09-24T00:21:48.460Z,13.00
2017-09-24T00:24:16.556Z,12.90
2017-09-24T00:26:44.648Z,12.90
2017-09-24T00:29:13.500Z,12.90
2017-09-24T00:31:41.629Z,12.90
2017-09-24T00:34:09.715Z,12.90
2017-09-24T00:36:37.810Z,12.90
2017-09-24T00:39:05.903Z,12.80
2017-09-24T00:41:34.003Z,12.80
2017-09-24T00:44:02.848Z,12.70
2017-09-24T00:46:30.961Z,12.70
2017-09-24T00:48:59.815Z,12.70
2017-09-24T00:51:27.907Z,12.70
2017-09-24T00:53:56.000Z,12.70
2017-09-24T00:56:24.859Z,12.70
2017-09-24T00:58:52.944Z,12.70
2017-09-24T01:01:21.040Z,12.70
2017-09-24T01:03:49.911Z,12.60
2017-09-24T01:06:18.012Z,12.60
2017-09-24T01:08:46.860Z,12.60
2017-09-24T01:11:14.969Z,12.60
2017-09-24T01:13:43.819Z,12.60
2017-09-24T01:16:11.901Z,12.60
2017-09-24T01:18:39.990Z,12.60
2017-09-24T01:21:08.076Z,12.60
2017-09-24T01:23:36.927Z,12.50
2017-09-24T01:26:05.009Z,12.50
2017-09-24T01:28:33.099Z,12.50
2017-09-24T01:31:01.181Z,12.50
2017-09-24T01:33:30.096Z,12.50
2017-09-24T01:35:58.934Z,12.50
2017-09-24T01:38:27.019Z,12.50
2017-09-24T01:40:55.116Z,12.50
2017-09-24T01:43:23.983Z,12.50
2017-09-24T01:45:52.065Z,12.40
2017-09-24T01:48:20.156Z,12.50
2017-09-24T01:50:49.023Z,12.40
2017-09-24T01:53:17.104Z,12.40
2017-09-24T01:55:45.187Z,12.40
2017-09-24T01:58:14.057Z,12.40
2017-09-24T02:00:42.140Z,12.30
2017-09-24T02:03:10.231Z,12.30
2017-09-24T02:05:39.092Z,12.30
2017-09-24T02:08:07.178Z,12.30
2017-09-24T02:10:35.256Z,12.30
2017-09-24T02:13:04.120Z,12.30
2017-09-24T02:15:32.204Z,12.30
2017-09-24T02:18:00.292Z,12.20
2017-09-24T02:20:29.150Z,12.20
2017-09-24T02:22:57.234Z,12.20
2017-09-24T02:25:25.320Z,12.10
2017-09-24T02:27:53.399Z,12.10
2017-09-24T02:30:22.259Z,12.10
2017-09-24T02:32:50.360Z,12.10
2017-09-24T02:35:18.446Z,12.00
2017-09-24T02:37:47.312Z,12.00
2017-09-24T02:40:15.405Z,12.00
2017-09-24T02:42:44.272Z,12.00
2017-09-24T02:45:12.361Z,12.00
2017-09-24T02:47:40.440Z,12.00
2017-09-24T02:50:09.290Z,12.00
2017-09-24T02:52:37.408Z,12.00
2017-09-24T02:55:06.276Z,11.90
2017-09-24T02:57:34.367Z,11.90
2017-09-24T03:00:03.227Z,11.80
2017-09-24T03:02:31.490Z,11.80
2017-09-24T03:04:59.572Z,11.80
2017-09-24T03:07:27.683Z,11.70
2017-09-24T03:09:56.524Z,11.70
2017-09-24T03:12:24.623Z,11.60
2017-09-24T03:14:52.709Z,11.60
2017-09-24T03:17:20.796Z,11.60
2017-09-24T03:19:49.649Z,11.60
2017-09-24T03:22:17.735Z,11.60
2017-09-24T03:24:45.925Z,11.60
2017-09-24T03:27:14.784Z,11.50
2017-09-24T03:29:42.874Z,11.50
2017-09-24T03:32:10.960Z,11.50
2017-09-24T03:34:39.053Z,11.50
2017-09-24T03:37:07.907Z,11.40
2017-09-24T03:39:35.997Z,11.40
2017-09-24T03:42:04.088Z,11.40
2017-09-24T03:44:33.077Z,11.40
2017-09-24T03:47:01.940Z,11.40
2017-09-24T03:49:30.049Z,11.30
2017-09-24T03:51:58.917Z,11.30
2017-09-24T03:54:27.015Z,11.30
2017-09-24T03:56:55.877Z,11.30
2017-09-24T03:59:23.946Z,11.30
2017-09-24T04:01:52.028Z,11.30
2017-09-24T04:04:20.124Z,11.30
2017-09-24T04:06:48.221Z,11.30
2017-09-24T04:09:16.305Z,11.30
2017-09-24T04:11:44.411Z,11.30
2017-09-24T04:14:13.300Z,11.30
2017-09-24T04:16:41.384Z,11.20
2017-09-24T04:19:09.472Z,11.20
2017-09-24T04:21:38.333Z,11.20
2017-09-24T04:24:06.420Z,11.20
2017-09-24T04:26:34.499Z,11.20
2017-09-24T04:29:03.370Z,11.10
2017-09-24T04:31:31.471Z,11.10
2017-09-24T04:34:00.323Z,11.00
2017-09-24T04:36:28.418Z,11.10
2017-09-24T04:38:56.501Z,11.00
2017-09-24T04:41:25.351Z,10.90
2017-09-24T04:43:53.439Z,10.90
2017-09-24T04:46:21.516Z,10.90
2017-09-24T04:48:49.620Z,10.90
2017-09-24T04:51:18.464Z,10.90
2017-09-24T04:53:46.547Z,10.90
2017-09-24T04:56:14.633Z,10.90
2017-09-24T04:58:42.712Z,10.80
2017-09-24T05:01:10.788Z,10.80
2017-09-24T05:03:39.651Z,10.70
2017-09-24T05:06:07.740Z,10.70
2017-09-24T05:08:35.828Z,10.70
2017-09-24T05:11:04.680Z,10.60
2017-09-24T05:13:32.768Z,10.60
2017-09-24T05:16:00.868Z,10.60
2017-09-24T05:18:29.720Z,10.50
2017-09-24T05:20:57.823Z,10.50
2017-09-24T05:23:26.688Z,10.50
2017-09-24T05:25:54.768Z,10.50
2017-09-24T05:28:22.851Z,10.50
2017-09-24T05:30:50.939Z,10.60
2017-09-24T05:33:19.787Z,10.60
2017-09-24T05:35:47.893Z,10.60
2017-09-24T05:38:15.976Z,10.60
2017-09-24T05:40:44.822Z,10.70
2017-09-24T05:43:12.915Z,10.60
2017-09-24T05:45:41.001Z,10.70
2017-09-24T05:48:09.859Z,10.70
2017-09-24T05:50:37.962Z,10.70
2017-09-24T05:53:06.044Z,10.70
2017-09-24T05:55:34.891Z,10.80
2017-09-24T05:58:02.978Z,10.80
2017-09-24T06:00:31.068Z,10.80
2017-09-24T06:02:59.153Z,10.80
2017-09-24T06:05:28.004Z,10.80
2017-09-24T06:07:56.097Z,10.80
2017-09-24T06:10:24.176Z,10.80
2017-09-24T06:12:52.264Z,10.80
2017-09-24T06:15:21.113Z,10.90
2017-09-24T06:17:49.200Z,10.90
2017-09-24T06:20:17.275Z,10.90
2017-09-24T06:22:45.360Z,11.00
2017-09-24T06:25:13.447Z,11.00
2017-09-24T06:27:42.299Z,11.10
2017-09-24T06:30:10.372Z,11.10
2017-09-24T06:32:38.457Z,11.10
2017-09-24T06:35:06.528Z,11.10
2017-09-24T06:37:34.612Z,11.10
2017-09-24T06:40:02.701Z,11.10
2017-09-24T06:42:31.553Z,11.20
2017-09-24T06:44:59.630Z,11.10
2017-09-24T06:47:27.708Z,11.20
2017-09-24T06:49:55.796Z,11.20
2017-09-24T06:52:23.875Z,11.20
2017-09-24T06:54:52.729Z,11.30
2017-09-24T06:57:20.805Z,11.30
2017-09-24T06:59:48.887Z,11.30
2017-09-24T07:02:16.965Z,11.30
2017-09-24T07:04:45.053Z,11.30
2017-09-24T07:07:13.904Z,11.30
2017-09-24T07:09:41.997Z,11.30
2017-09-24T07:12:10.071Z,11.40
2017-09-24T07:14:38.152Z,11.40
2017-09-24T07:17:06.236Z,11.40
2017-09-24T07:19:35.149Z,11.50
2017-09-24T07:22:03.233Z,11.50
2017-09-24T07:24:31.319Z,11.50
2017-09-24T07:26:59.402Z,11.50
2017-09-24T07:29:27.487Z,11.50
2017-09-24T07:31:55.584Z,11.60
2017-09-24T07:34:23.676Z,11.60
2017-09-24T07:36:52.528Z,11.60
2017-09-24T07:39:20.625Z,11.60
2017-09-24T07:41:49.480Z,11.80
2017-09-24T07:44:18.011Z,11.70
2017-09-24T07:46:46.861Z,11.90
2017-09-24T07:49:14.960Z,11.90
2017-09-24T07:51:43.064Z,11.90
2017-09-24T07:54:11.175Z,11.90
2017-09-24T07:56:39.266Z,12.00
2017-09-24T07:59:07.358Z,12.10
2017-09-24T08:01:36.245Z,12.20
2017-09-24T08:04:05.106Z,12.30
2017-09-24T08:06:33.190Z,12.30
2017-09-24T08:09:01.314Z,12.30
2017-09-24T08:11:29.405Z,12.40
2017-09-24T08:13:57.785Z,12.50
2017-09-24T08:16:25.863Z,12.60
2017-09-24T08:18:53.951Z,12.70
2017-09-24T08:21:22.054Z,12.70
2017-09-24T08:23:50.928Z,12.80
2017-09-24T08:26:19.018Z,12.80
2017-09-24T08:28:47.120Z,12.80
2017-09-24T08:31:15.205Z,12.90
2017-09-24T08:33:43.295Z,13.00
2017-09-24T08:36:11.375Z,13.10
2017-09-24T08:38:39.464Z,13.20
2017-09-24T08:41:07.547Z,13.20
2017-09-24T08:43:35.619Z,13.40
2017-09-24T08:46:03.693Z,13.60
2017-09-24T08:48:31.780Z,13.70
2017-09-24T08:51:00.633Z,13.70
2017-09-24T08:53:28.708Z,13.70
2017-09-24T08:55:56.796Z,13.80
2017-09-24T08:58:24.867Z,13.90
2017-09-24T09:00:52.954Z,13.90
2017-09-24T09:03:21.032Z,14.00
2017-09-24T09:05:49.884Z,14.10
2017-09-24T09:08:17.959Z,14.10
2017-09-24T09:10:46.048Z,14.10
2017-09-24T09:13:14.150Z,14.30
2017-09-24T09:15:43.016Z,14.40
2017-09-24T09:18:11.095Z,14.40
2017-09-24T09:20:39.177Z,14.40
2017-09-24T09:23:08.020Z,14.60
2017-09-24T09:25:36.119Z,14.50
2017-09-24T09:28:04.191Z,14.60
2017-09-24T09:30:32.275Z,14.70
2017-09-24T09:33:18.156Z,14.80
2017-09-24T09:35:46.234Z,14.80
2017-09-24T09:38:14.307Z,14.90
2017-09-24T09:40:42.680Z,15.00
2017-09-24T09:43:10.752Z,15.10
2017-09-24T09:45:59.771Z,15.20
2017-09-24T09:48:27.851Z,15.20
2017-09-24T09:50:55.942Z,15.20
2017-09-24T09:53:24.036Z,15.30
2017-09-24T09:55:52.115Z,15.30
2017-09-24T09:58:20.188Z,15.40
2017-09-24T10:00:48.270Z,15.30
2017-09-24T10:03:17.128Z,15.50
2017-09-24T10:05:45.208Z,15.40
2017-09-24T10:08:31.076Z,15.60
2017-09-24T10:10:59.161Z,15.70
2017-09-24T10:13:27.235Z,16.00
2017-09-24T10:15:55.299Z,16.10
2017-09-24T10:18:23.467Z,16.00
2017-09-24T10:20:51.549Z,16.00
2017-09-24T10:23:19.623Z,16.00
2017-09-24T10:25:47.706Z,16.10
2017-09-24T10:28:33.704Z,16.10
2017-09-24T10:31:01.785Z,16.20
2017-09-24T10:33:29.864Z,16.30
2017-09-24T10:35:57.937Z,16.50
2017-09-24T10:38:26.795Z,16.70
2017-09-24T10:40:54.873Z,16.70
2017-09-24T10:43:22.940Z,16.70
2017-09-24T10:45:51.039Z,16.70
2017-09-24T10:48:19.188Z,16.80
2017-09-24T10:50:47.264Z,16.90
2017-09-24T10:53:15.346Z,16.90
2017-09-24T10:55:43.415Z,16.80
2017-09-24T10:58:11.497Z,16.70
2017-09-24T11:00:39.563Z,16.70
2017-09-24T11:03:07.647Z,16.70
2017-09-24T11:05:35.709Z,16.60
2017-09-24T11:08:03.784Z,16.60
2017-09-24T11:10:31.856Z,16.50
2017-09-24T11:12:59.940Z,16.40
2017-09-24T11:15:28.016Z,16.40
2017-09-24T11:17:56.092Z,16.50
2017-09-24T11:20:24.927Z,16.60
2017-09-24T11:22:53.003Z,16.60
2017-09-24T11:25:21.067Z,16.60
2017-09-24T11:27:49.170Z,16.50
2017-09-24T11:30:17.241Z,16.50
2017-09-24T11:32:45.343Z,16.50
2017-09-24T11:35:13.409Z,16.50
2017-09-24T11:37:41.487Z,16.60
2017-09-24T11:40:09.585Z,16.60
2017-09-24T11:42:37.642Z,16.60
2017-09-24T11:45:06.480Z,16.50
2017-09-24T11:47:35.327Z,16.60
2017-09-24T11:50:04.160Z,16.50
2017-09-24T11:52:32.241Z,16.50
2017-09-24T11:55:00.316Z,16.50
2017-09-24T11:57:28.556Z,16.50
2017-09-24T11:59:56.642Z,16.50
2017-09-24T12:02:24.728Z,16.50
2017-09-24T12:04:53.599Z,16.60
2017-09-24T12:07:21.704Z,16.60
2017-09-24T12:09:49.784Z,16.70
2017-09-24T12:12:17.879Z,16.80
2017-09-24T12:14:45.948Z,16.90
2017-09-24T12:17:14.031Z,16.90
2017-09-24T12:19:42.865Z,17.00
2017-09-24T12:22:10.948Z,17.00
2017-09-24T12:24:39.006Z,17.10
2017-09-24T12:27:07.092Z,17.10
2017-09-24T12:29:35.166Z,17.20
2017-09-24T12:32:03.247Z,17.50
2017-09-24T12:34:31.319Z,17.40
2017-09-24T12:36:59.400Z,17.50
2017-09-24T12:39:27.463Z,17.70
2017-09-24T12:41:55.539Z,17.70
2017-09-24T12:44:23.603Z,17.70
2017-09-24T12:46:51.696Z,17.70
2017-09-24T12:49:19.780Z,17.80
2017-09-24T12:51:47.863Z,18.00
2017-09-24T12:54:16.703Z,18.20
2017-09-24T12:56:44.803Z,18.20
2017-09-24T12:59:12.879Z,18.10
2017-09-24T13:01:40.951Z,18.10
2017-09-24T13:04:09.032Z,18.00
2017-09-24T13:06:37.096Z,18.10
2017-09-24T13:09:05.180Z,18.10
2017-09-24T13:11:33.252Z,18.30
2017-09-24T13:14:01.324Z,18.40
2017-09-24T13:16:29.395Z,18.40
2017-09-24T13:18:57.495Z,18.30
2017-09-24T13:21:26.320Z,18.40
2017-09-24T13:23:55.155Z,18.40
2017-09-24T13:26:23.231Z,18.40
2017-09-24T13:28:52.083Z,18.40
2017-09-24T13:31:20.164Z,18.40
2017-09-24T13:33:48.247Z,18.40
2017-09-24T13:36:16.321Z,18.30
2017-09-24T13:38:44.423Z,18.40
2017-09-24T13:41:13.277Z,18.40
2017-09-24T13:43:41.370Z,18.40
2017-09-24T13:46:09.444Z,18.30
2017-09-24T13:48:37.539Z,18.20
2017-09-24T13:51:06.376Z,18.10
2017-09-24T13:53:34.455Z,18.20
2017-09-24T13:56:02.524Z,18.10
2017-09-24T13:58:30.594Z,18.10
2017-09-24T14:00:58.691Z,18.10
2017-09-24T14:03:26.788Z,18.10
2017-09-24T14:05:55.632Z,18.10
2017-09-24T14:08:23.738Z,18.20
2017-09-24T14:10:52.579Z,18.10
2017-09-24T14:13:21.433Z,18.10
2017-09-24T14:15:50.276Z,18.00
2017-09-24T14:18:18.359Z,18.00
2017-09-24T14:20:46.431Z,18.00
2017-09-24T14:23:14.516Z,18.00
2017-09-24T14:25:42.574Z,18.00
2017-09-24T14:28:10.661Z,18.00
2017-09-24T14:30:38.762Z,18.00
2017-09-24T14:33:07.619Z,17.80
2017-09-24T14:35:35.692Z,17.80
2017-09-24T14:38:03.775Z,17.80
2017-09-24T14:40:31.844Z,17.90
2017-09-24T14:42:59.915Z,17.90
2017-09-24T14:45:27.997Z,17.90
2017-09-24T14:47:56.071Z,17.80
2017-09-24T14:50:24.904Z,17.70
2017-09-24T14:52:52.991Z,17.70
2017-09-24T14:55:21.051Z,17.70
2017-09-24T14:57:49.133Z,17.60
2017-09-24T15:00:17.195Z,17.50
2017-09-24T15:02:48.244Z,17.60
2017-09-24T15:05:16.355Z,17.50
2017-09-24T15:07:44.436Z,17.60
2017-09-24T15:10:12.524Z,17.70
2017-09-24T15:12:41.369Z,17.70
2017-09-24T15:15:09.451Z,17.70
2017-09-24T15:17:37.524Z,17.60
2017-09-24T15:20:05.608Z,17.50
2017-09-24T15:22:33.754Z,17.40
2017-09-24T15:25:01.832Z,17.30
2017-09-24T15:27:29.910Z,17.20
2017-09-24T15:29:58.003Z,17.20
2017-09-24T15:32:26.077Z,17.20
2017-09-24T15:34:54.161Z,17.20
2017-09-24T15:37:23.009Z,17.20
2017-09-24T15:39:51.102Z,17.20
2017-09-24T15:42:19.182Z,17.10
2017-09-24T15:44:47.291Z,17.10
2017-09-24T15:47:15.496Z,17.10
2017-09-24T15:49:43.585Z,17.10
2017-09-24T15:52:11.652Z,17.10
2017-09-24T15:54:40.132Z,17.00
2017-09-24T15:57:08.202Z,17.10
2017-09-24T15:59:36.288Z,17.10
2017-09-24T16:02:04.342Z,17.00
2017-09-24T16:04:32.429Z,17.00
2017-09-24T16:07:00.502Z,17.00
2017-09-24T16:09:28.587Z,16.90
2017-09-24T16:11:56.663Z,16.90
2017-09-24T16:14:24.745Z,16.90
2017-09-24T16:16:52.833Z,16.90
2017-09-24T16:19:21.681Z,16.90
2017-09-24T16:21:49.768Z,16.90
2017-09-24T16:24:17.861Z,16.80
2017-09-24T16:26:46.716Z,16.80
2017-09-24T16:29:14.803Z,16.70
2017-09-24T16:31:42.882Z,16.80
2017-09-24T16:34:10.967Z,16.70
2017-09-24T16:36:39.813Z,16.70
2017-09-24T16:39:07.890Z,16.70
2017-09-24T16:41:35.960Z,16.70
2017-09-24T16:44:04.035Z,16.70
2017-09-24T16:46:32.110Z,16.70
2017-09-24T16:49:00.191Z,16.70
2017-09-24T16:51:28.261Z,16.60
2017-09-24T16:53:56.339Z,16.60
2017-09-24T16:56:24.412Z,16.60
2017-09-24T16:58:52.496Z,16.60
2017-09-24T17:01:20.569Z,16.50
2017-09-24T17:03:48.651Z,16.50
2017-09-24T17:06:17.481Z,16.50
2017-09-24T17:08:45.559Z,16.50
2017-09-24T17:11:13.628Z,16.50
2017-09-24T17:13:41.707Z,16.40
2017-09-24T17:16:09.786Z,16.40
2017-09-24T17:18:38.636Z,16.40
2017-09-24T17:21:07.479Z,16.40
2017-09-24T17:23:35.576Z,16.40
2017-09-24T17:26:03.659Z,16.30
2017-09-24T17:28:32.515Z,16.30
2017-09-24T17:31:00.600Z,16.30
2017-09-24T17:33:28.683Z,16.30
2017-09-24T17:35:56.768Z,16.30
2017-09-24T17:38:25.617Z,16.20
2017-09-24T17:40:53.694Z,16.20
2017-09-24T17:43:21.851Z,16.20
2017-09-24T17:45:49.942Z,16.10
2017-09-24T17:48:18.123Z,16.10
2017-09-24T17:50:46.180Z,16.10
2017-09-24T17:53:14.263Z,16.00
2017-09-24T17:55:42.347Z,15.90
2017-09-24T17:58:10.429Z,15.90
2017-09-24T18:00:38.511Z,15.90
2017-09-24T18:03:06.587Z,15.80
2017-09-24T18:05:34.671Z,15.80
2017-09-24T18:08:03.516Z,15.80
2017-09-24T18:10:31.592Z,15.80
2017-09-24T18:12:59.680Z,15.80
2017-09-24T18:15:27.776Z,15.70
2017-09-24T18:17:56.616Z,15.60
2017-09-24T18:20:24.716Z,15.60
2017-09-24T18:22:52.783Z,15.60
2017-09-24T18:25:20.912Z,15.60
2017-09-24T18:27:49.023Z,15.60
2017-09-24T18:30:17.103Z,15.50
2017-09-24T18:32:45.179Z,15.50
2017-09-24T18:35:14.285Z,15.50
2017-09-24T18:37:42.364Z,15.40
2017-09-24T18:40:10.447Z,15.40
2017-09-24T18:42:39.298Z,15.30
2017-09-24T18:45:07.451Z,15.30
2017-09-24T18:47:35.531Z,15.30
2017-09-24T18:50:04.383Z,15.30
2017-09-24T18:52:33.222Z,15.30
2017-09-24T18:55:01.313Z,15.30
2017-09-24T18:57:29.395Z,15.20
2017-09-24T18:59:58.259Z,15.10
2017-09-24T19:02:26.336Z,15.10
2017-09-24T19:04:54.420Z,15.00
2017-09-24T19:07:22.496Z,15.00
2017-09-24T19:09:50.584Z,14.90
2017-09-24T19:12:19.441Z,14.90
2017-09-24T19:14:47.519Z,14.80
2017-09-24T19:17:15.600Z,14.80
2017-09-24T19:19:43.692Z,14.80
2017-09-24T19:22:12.528Z,14.70
2017-09-24T19:24:40.624Z,14.70
2017-09-24T19:27:08.719Z,14.70
2017-09-24T19:29:36.800Z,14.70
2017-09-24T19:32:05.678Z,14.60
2017-09-24T19:34:33.790Z,14.60
2017-09-24T19:37:01.847Z,14.60
2017-09-24T19:39:30.695Z,14.50
2017-09-24T19:41:58.783Z,14.40
2017-09-24T19:44:26.913Z,14.40
2017-09-24T19:46:54.995Z,14.40
2017-09-24T19:49:23.067Z,14.40
2017-09-24T19:51:51.147Z,14.40
2017-09-24T19:54:19.244Z,14.30
2017-09-24T19:56:47.338Z,14.30
2017-09-24T19:59:16.239Z,14.20
2017-09-24T20:01:45.131Z,14.20
2017-09-24T20:04:13.976Z,14.10
2017-09-24T20:06:42.049Z,14.10
2017-09-24T20:09:10.141Z,14.10
2017-09-24T20:11:38.212Z,14.00
2017-09-24T20:14:06.310Z,13.90
2017-09-24T20:16:35.174Z,13.90
2017-09-24T20:19:03.260Z,13.90
2017-09-24T20:21:31.355Z,13.80
2017-09-24T20:24:00.207Z,13.70
2017-09-24T20:26:28.333Z,13.60
2017-09-24T20:28:56.419Z,13.60
2017-09-24T20:31:24.500Z,13.70
2017-09-24T20:33:52.592Z,13.60
2017-09-24T20:36:20.664Z,13.50
2017-09-24T20:38:48.759Z,13.40
2017-09-24T20:41:16.839Z,13.30
2017-09-24T20:43:44.915Z,13.20
2017-09-24T20:46:13.912Z,13.20
2017-09-24T20:48:41.984Z,13.20
2017-09-24T20:51:10.836Z,13.20
2017-09-24T20:53:39.729Z,13.10
2017-09-24T20:56:07.815Z,13.00
2017-09-24T20:58:35.882Z,13.00
2017-09-24T21:01:03.984Z,12.90
2017-09-24T21:03:32.824Z,12.60
2017-09-24T21:06:00.912Z,12.60
2017-09-24T21:08:29.006Z,12.60
2017-09-24T21:10:57.867Z,12.70
2017-09-24T21:13:25.950Z,12.70
2017-09-24T21:15:54.031Z,12.80
2017-09-24T21:18:22.115Z,12.80
2017-09-24T21:20:50.207Z,12.80
2017-09-24T21:23:19.052Z,12.60
2017-09-24T21:25:47.188Z,12.60
2017-09-24T21:28:15.272Z,12.50
2017-09-24T21:30:43.371Z,12.50
2017-09-24T21:33:11.472Z,12.40
2017-09-24T21:35:39.554Z,12.40
2017-09-24T21:38:08.400Z,12.30
2017-09-24T21:40:36.489Z,12.30
2017-09-24T21:43:04.570Z,12.30
2017-09-24T21:45:32.663Z,12.20
2017-09-24T21:48:01.503Z,12.20
2017-09-24T21:50:29.590Z,12.20
2017-09-24T21:52:57.663Z,12.10
2017-09-24T21:55:25.760Z,12.10
2017-09-24T21:57:53.840Z,12.00
2017-09-24T22:00:21.923Z,12.00
2017-09-24T22:02:50.771Z,12.00
2017-09-24T22:05:18.860Z,12.00
2017-09-24T22:07:46.931Z,12.00
2017-09-24T22:10:16.627Z,11.90
2017-09-24T22:12:44.768Z,11.90
2017-09-24T22:15:12.846Z,11.90
2017-09-24T22:17:40.932Z,11.70
2017-09-24T22:20:09.015Z,11.70
2017-09-24T22:22:37.110Z,11.70
2017-09-24T22:25:05.200Z,11.70
2017-09-24T22:27:33.392Z,11.70
2017-09-24T22:30:02.244Z,11.80
2017-09-24T22:32:30.328Z,11.80
2017-09-24T22:34:58.411Z,11.80
2017-09-24T22:37:27.267Z,11.80
2017-09-24T22:39:55.364Z,11.80
2017-09-24T22:42:23.439Z,11.70
2017-09-24T22:44:51.584Z,11.70
2017-09-24T22:47:19.664Z,11.60
2017-09-24T22:49:47.743Z,11.70
2017-09-24T22:52:15.827Z,11.70
2017-09-24T22:54:43.899Z,11.60
2017-09-24T22:57:11.998Z,11.50
2017-09-24T22:59:40.844Z,11.40
2017-09-24T23:02:08.928Z,11.40
2017-09-24T23:04:37.010Z,11.50
2017-09-24T23:07:05.163Z,11.40
2017-09-24T23:09:33.231Z,11.50
2017-09-24T23:12:01.323Z,11.50
2017-09-24T23:14:29.398Z,11.50
2017-09-24T23:16:57.490Z,11.40
2017-09-24T23:19:26.334Z,11.40
2017-09-24T23:21:54.427Z,11.30
2017-09-24T23:24:22.504Z,11.40
2017-09-24T23:26:50.583Z,11.40
2017-09-24T23:29:18.663Z,11.30
2017-09-24T23:31:47.524Z,10.90
2017-09-24T23:34:15.590Z,10.90
2017-09-24T23:36:43.678Z,10.90
2017-09-24T23:39:11.752Z,11.00
2017-09-24T23:41:39.836Z,11.00
2017-09-24T23:44:07.911Z,11.00
2017-09-24T23:46:35.996Z,11.00
2017-09-24T23:49:04.848Z,11.00
2017-09-24T23:51:32.935Z,10.90
2017-09-24T23:54:01.003Z,11.00
2017-09-24T23:56:29.096Z,11.00
2017-09-24T23:58:57.167Z,11.00
